createdAt,value
2022-12-31T00:01:32.627Z,66.35
2022-12-31T00:04:05.592Z,66.26
2022-12-31T00:06:46.157Z,66.59
2022-12-31T00:09:17.136Z,66.26
2022-12-31T00:11:47.133Z,66.24
2022-12-31T00:14:17.104Z,65.96
2022-12-31T00:16:47.080Z,65.92
2022-12-31T00:19:19.828Z,66.67
2022-12-31T00:21:49.824Z,66.34
2022-12-31T00:24:19.754Z,65.77
2022-12-31T00:26:49.794Z,65.68
2022-12-31T00:29:19.747Z,65.39
2022-12-31T00:31:49.718Z,65.29
2022-12-31T00:34:22.320Z,65.02
2022-12-31T00:36:52.396Z,64.90
2022-12-31T00:39:22.407Z,66.23
2022-12-31T00:41:52.396Z,66.39
2022-12-31T00:44:25.181Z,66.48
2022-12-31T00:46:55.112Z,66.25
2022-12-31T00:49:27.715Z,65.51
2022-12-31T00:51:57.769Z,65.42
2022-12-31T00:54:27.810Z,65.45
2022-12-31T00:56:57.918Z,64.71
2022-12-31T00:59:28.348Z,64.76
2022-12-31T01:01:58.329Z,64.19
2022-12-31T01:04:39.921Z,64.47
2022-12-31T01:07:09.981Z,64.08
2022-12-31T01:09:39.943Z,64.06
2022-12-31T01:12:10.433Z,63.94
2022-12-31T01:14:40.444Z,64.25
2022-12-31T01:17:10.572Z,64.18
2022-12-31T01:19:47.829Z,64.60
2022-12-31T01:22:17.835Z,64.43
2022-12-31T01:24:47.833Z,64.44
2022-12-31T01:27:17.801Z,64.44
2022-12-31T01:29:53.264Z,64.00
2022-12-31T01:32:23.191Z,64.17
2022-12-31T01:34:55.752Z,64.79
2022-12-31T01:37:25.795Z,64.09
2022-12-31T01:39:55.755Z,64.00
2022-12-31T01:42:25.753Z,64.18
2022-12-31T01:44:57.940Z,64.76
2022-12-31T01:47:40.103Z,64.88
2022-12-31T01:50:17.923Z,65.42
2022-12-31T01:52:50.991Z,65.37
2022-12-31T01:55:24.420Z,64.87
2022-12-31T01:57:58.937Z,64.36
2022-12-31T02:00:29.081Z,64.98
2022-12-31T02:02:59.307Z,64.83
2022-12-31T02:05:38.489Z,64.57
2022-12-31T02:08:09.550Z,64.90
2022-12-31T02:10:39.503Z,64.98
2022-12-31T02:13:09.944Z,65.02
2022-12-31T02:15:58.992Z,65.11
2022-12-31T02:18:37.103Z,65.09
2022-12-31T02:21:37.022Z,64.45
2022-12-31T02:24:26.384Z,65.47
2022-12-31T02:27:04.324Z,65.44
2022-12-31T02:30:14.402Z,66.11
2022-12-31T02:33:05.758Z,66.58
2022-12-31T02:35:41.368Z,67.38
2022-12-31T02:38:16.972Z,66.61
2022-12-31T02:40:47.817Z,66.72
2022-12-31T02:43:17.992Z,66.89
2022-12-31T02:45:56.409Z,66.83
2022-12-31T02:48:43.541Z,66.15
2022-12-31T02:51:27.861Z,65.87
2022-12-31T02:54:20.368Z,66.55
2022-12-31T02:57:00.050Z,66.21
2022-12-31T02:59:49.157Z,66.82
2022-12-31T03:02:25.771Z,67.38
2022-12-31T03:04:57.806Z,67.53
2022-12-31T03:07:29.999Z,67.74
2022-12-31T03:10:00.971Z,67.36
2022-12-31T03:12:46.997Z,67.07
2022-12-31T03:15:22.865Z,67.50
2022-12-31T03:18:02.243Z,67.71
2022-12-31T03:20:48.292Z,67.31
2022-12-31T03:23:21.848Z,66.66
2022-12-31T03:25:49.523Z,66.62
2022-12-31T03:28:22.058Z,66.67
2022-12-31T03:30:54.446Z,66.46
2022-12-31T03:33:28.197Z,66.89
2022-12-31T03:35:58.076Z,66.63
2022-12-31T03:38:28.085Z,66.65
2022-12-31T03:40:58.135Z,66.59
2022-12-31T03:43:28.828Z,66.93
2022-12-31T03:46:01.586Z,67.37
2022-12-31T03:48:34.285Z,67.66
2022-12-31T03:51:04.223Z,67.87
2022-12-31T03:53:35.712Z,67.25
2022-12-31T03:56:05.680Z,66.77
2022-12-31T03:58:35.655Z,66.65
2022-12-31T04:01:05.615Z,66.21
2022-12-31T04:03:38.217Z,66.12
2022-12-31T04:06:08.455Z,66.82
2022-12-31T04:08:38.397Z,67.45
2022-12-31T04:11:08.331Z,66.97
2022-12-31T04:13:38.240Z,67.28
2022-12-31T04:16:09.146Z,67.06
2022-12-31T04:18:41.829Z,67.58
2022-12-31T04:21:12.018Z,67.30
2022-12-31T04:23:43.363Z,67.18
2022-12-31T04:26:13.352Z,66.69
2022-12-31T04:28:59.952Z,66.99
2022-12-31T04:31:30.666Z,66.42
2022-12-31T04:34:03.249Z,67.67
2022-12-31T04:36:33.212Z,67.78
2022-12-31T04:39:03.147Z,67.53
2022-12-31T04:41:33.050Z,67.17
2022-12-31T04:44:03.247Z,66.91
2022-12-31T04:46:50.148Z,67.27
2022-12-31T04:49:22.841Z,66.98
2022-12-31T04:51:52.795Z,66.56
2022-12-31T04:54:22.714Z,66.30
2022-12-31T04:56:52.637Z,67.28
2022-12-31T04:59:22.550Z,67.44
2022-12-31T05:01:52.526Z,67.57
2022-12-31T05:04:25.097Z,68.29
2022-12-31T05:06:55.039Z,68.01
2022-12-31T05:09:27.597Z,68.52
2022-12-31T05:11:57.670Z,68.23
2022-12-31T05:14:45.679Z,66.98
2022-12-31T05:17:15.863Z,67.39
2022-12-31T05:19:48.360Z,68.29
2022-12-31T05:22:34.732Z,68.47
2022-12-31T05:25:04.618Z,68.71
2022-12-31T05:27:34.656Z,68.65
2022-12-31T05:30:04.611Z,67.90
2022-12-31T05:32:34.818Z,67.92
2022-12-31T05:35:08.889Z,67.47
2022-12-31T05:37:39.074Z,68.00
2022-12-31T05:40:10.522Z,68.59
2022-12-31T05:42:40.419Z,68.21
2022-12-31T05:45:13.490Z,68.51
2022-12-31T05:47:43.757Z,69.29
2022-12-31T05:50:18.174Z,71.60
2022-12-31T05:52:48.797Z,71.89
2022-12-31T05:55:18.894Z,71.52
2022-12-31T05:57:48.818Z,71.54
2022-12-31T06:00:19.428Z,72.53
2022-12-31T06:02:49.485Z,72.74
2022-12-31T06:05:26.061Z,72.72
2022-12-31T06:07:56.453Z,73.02
2022-12-31T06:10:26.416Z,72.77
2022-12-31T06:12:56.372Z,73.06
2022-12-31T06:15:28.038Z,74.68
2022-12-31T06:17:58.151Z,74.18
2022-12-31T06:20:30.713Z,73.92
2022-12-31T06:23:00.604Z,75.21
2022-12-31T06:25:30.520Z,74.17
2022-12-31T06:28:00.522Z,74.29
2022-12-31T06:30:30.472Z,73.83
2022-12-31T06:33:00.438Z,73.29
2022-12-31T06:35:32.959Z,73.36
2022-12-31T06:38:02.880Z,72.80
2022-12-31T06:40:32.836Z,72.94
2022-12-31T06:43:02.766Z,73.75
2022-12-31T06:45:32.681Z,73.41
2022-12-31T06:48:02.757Z,73.39
2022-12-31T06:50:35.289Z,73.90
2022-12-31T06:53:05.290Z,73.97
2022-12-31T06:55:36.128Z,74.25
2022-12-31T06:58:08.869Z,73.63
2022-12-31T07:00:39.137Z,73.33
2022-12-31T07:03:25.238Z,73.30
2022-12-31T07:06:04.472Z,72.72
2022-12-31T07:08:48.840Z,72.32
2022-12-31T07:11:24.289Z,72.49
2022-12-31T07:14:13.291Z,72.84
2022-12-31T07:17:01.722Z,72.40
2022-12-31T07:19:42.487Z,72.34
2022-12-31T07:22:17.717Z,71.42
2022-12-31T07:24:48.325Z,71.05
2022-12-31T07:27:52.921Z,71.26
2022-12-31T07:30:25.901Z,70.71
2022-12-31T07:33:14.087Z,70.69
2022-12-31T07:35:57.004Z,71.23
2022-12-31T07:38:39.344Z,70.33
2022-12-31T07:41:19.621Z,70.37
2022-12-31T07:44:03.997Z,70.20
2022-12-31T07:46:40.614Z,69.66
2022-12-31T07:49:14.075Z,69.51
2022-12-31T07:51:45.514Z,69.70
2022-12-31T07:54:44.433Z,69.43
2022-12-31T07:57:16.049Z,69.03
2022-12-31T08:00:00.734Z,69.32
2022-12-31T08:02:51.255Z,68.99
2022-12-31T08:05:28.053Z,68.88
2022-12-31T08:08:08.911Z,68.55
2022-12-31T08:10:48.055Z,68.52
2022-12-31T08:13:19.989Z,68.22
2022-12-31T08:15:50.688Z,68.01
2022-12-31T08:18:21.124Z,67.23
2022-12-31T08:21:03.527Z,67.60
2022-12-31T08:23:41.020Z,67.70
2022-12-31T08:26:25.759Z,67.40
2022-12-31T08:29:10.847Z,67.25
2022-12-31T08:31:51.007Z,67.37
2022-12-31T08:34:28.330Z,67.42
2022-12-31T08:37:07.422Z,67.51
2022-12-31T08:39:55.255Z,67.17
2022-12-31T08:42:34.152Z,67.06
2022-12-31T08:45:12.929Z,67.19
2022-12-31T08:47:56.447Z,67.17
2022-12-31T08:50:30.856Z,66.63
2022-12-31T08:53:19.059Z,66.43
2022-12-31T08:55:50.610Z,66.81
2022-12-31T08:58:38.348Z,66.25
2022-12-31T09:01:09.922Z,65.98
2022-12-31T09:03:54.482Z,65.49
2022-12-31T09:06:32.137Z,65.39
2022-12-31T09:09:10.291Z,65.20
2022-12-31T09:11:52.279Z,65.32
2022-12-31T09:14:43.264Z,65.07
2022-12-31T09:17:35.185Z,64.76
2022-12-31T09:20:06.689Z,64.61
2022-12-31T09:22:37.073Z,64.81
2022-12-31T09:25:07.789Z,64.67
2022-12-31T09:27:45.432Z,64.37
2022-12-31T09:30:20.500Z,63.48
2022-12-31T09:33:01.075Z,62.06
2022-12-31T09:35:39.392Z,61.20
2022-12-31T09:38:19.526Z,59.93
2022-12-31T09:40:58.650Z,58.10
2022-12-31T09:44:03.415Z,56.07
2022-12-31T09:47:00.713Z,55.90
2022-12-31T09:50:16.060Z,55.91
2022-12-31T09:52:59.273Z,57.73
2022-12-31T09:55:36.720Z,58.50
2022-12-31T09:58:19.420Z,58.63
2022-12-31T10:00:55.728Z,59.95
2022-12-31T10:03:46.559Z,58.83
2022-12-31T10:06:30.596Z,58.98
2022-12-31T10:09:30.127Z,59.32
2022-12-31T10:12:18.879Z,59.13
2022-12-31T10:15:05.874Z,59.92
2022-12-31T10:17:51.761Z,60.51
2022-12-31T10:20:50.667Z,60.38
2022-12-31T10:23:55.072Z,60.87
2022-12-31T10:26:53.111Z,60.66
2022-12-31T10:29:32.643Z,60.89
2022-12-31T10:32:17.193Z,61.23
2022-12-31T10:35:02.914Z,61.43
2022-12-31T10:37:45.933Z,61.06
2022-12-31T10:40:27.547Z,61.16
2022-12-31T10:43:52.787Z,61.37
2022-12-31T10:47:02.902Z,61.06
2022-12-31T10:50:25.636Z,61.10
2022-12-31T10:53:28.371Z,61.55
2022-12-31T10:56:33.253Z,61.58
2022-12-31T10:59:33.352Z,61.28
2022-12-31T11:02:33.777Z,62.29
2022-12-31T11:05:33.751Z,62.93
2022-12-31T11:08:26.810Z,62.76
2022-12-31T11:11:10.200Z,62.64
2022-12-31T11:14:14.492Z,62.60
2022-12-31T11:17:00.475Z,62.10
2022-12-31T11:19:54.414Z,62.36
2022-12-31T11:22:58.229Z,62.26
2022-12-31T11:25:43.478Z,62.07
2022-12-31T11:28:37.381Z,62.58
2022-12-31T11:31:30.653Z,62.69
2022-12-31T11:34:22.397Z,61.97
2022-12-31T11:37:07.561Z,61.77
2022-12-31T11:39:46.086Z,62.06
2022-12-31T11:42:26.607Z,61.65
2022-12-31T11:45:03.053Z,61.65
2022-12-31T11:50:57.925Z,61.54
2022-12-31T11:53:39.756Z,61.48
2022-12-31T11:56:19.803Z,61.47
2022-12-31T11:58:55.096Z,61.30
2022-12-31T12:01:29.789Z,60.91
2022-12-31T12:03:59.858Z,60.57
2022-12-31T12:06:32.894Z,60.91
2022-12-31T12:09:07.222Z,60.56
2022-12-31T12:11:41.054Z,60.59
2022-12-31T12:14:30.919Z,60.47
2022-12-31T12:17:05.171Z,60.63
2022-12-31T12:19:37.273Z,60.30
2022-12-31T12:22:14.371Z,60.34
2022-12-31T12:24:55.733Z,59.88
2022-12-31T12:27:30.333Z,60.14
2022-12-31T12:30:11.762Z,60.06
2022-12-31T12:32:41.840Z,59.75
2022-12-31T12:35:19.123Z,59.44
2022-12-31T12:37:49.094Z,59.23
2022-12-31T12:40:33.081Z,59.58
2022-12-31T12:43:06.946Z,59.39
2022-12-31T12:45:51.699Z,59.29
2022-12-31T12:48:28.891Z,58.96
2022-12-31T12:50:58.940Z,59.32
2022-12-31T12:53:48.136Z,59.53
2022-12-31T12:56:27.604Z,59.17
2022-12-31T12:59:15.943Z,58.74
2022-12-31T13:01:56.552Z,58.74
2022-12-31T13:04:47.708Z,59.04
2022-12-31T13:07:28.316Z,58.81
2022-12-31T13:10:18.752Z,58.46
2022-12-31T13:15:56.905Z,58.24
2022-12-31T13:18:42.665Z,58.58
2022-12-31T13:21:25.502Z,58.38
2022-12-31T13:24:06.013Z,58.10
2022-12-31T13:26:42.149Z,58.13
2022-12-31T13:29:21.851Z,57.74
2022-12-31T13:31:53.540Z,57.93
2022-12-31T13:34:34.429Z,57.48
2022-12-31T13:37:09.879Z,57.71
2022-12-31T13:39:44.863Z,57.32
2022-12-31T13:42:25.401Z,57.06
2022-12-31T13:44:59.737Z,57.26
2022-12-31T13:47:38.193Z,57.33
2022-12-31T13:50:23.746Z,57.00
2022-12-31T13:52:59.911Z,57.27
2022-12-31T13:55:34.802Z,57.06
2022-12-31T13:58:14.273Z,56.58
2022-12-31T14:00:51.313Z,56.76
2022-12-31T14:03:39.688Z,56.68
2022-12-31T14:06:18.026Z,56.68
2022-12-31T14:08:49.008Z,56.69
2022-12-31T14:11:27.863Z,56.86
2022-12-31T14:14:10.294Z,56.55
2022-12-31T14:16:47.043Z,56.37
2022-12-31T14:19:31.573Z,56.32
2022-12-31T14:22:13.475Z,56.50
2022-12-31T14:24:47.741Z,56.63
2022-12-31T14:27:22.831Z,56.62
2022-12-31T14:29:57.261Z,56.56
2022-12-31T14:33:00.188Z,56.43
2022-12-31T14:35:42.269Z,56.24
2022-12-31T14:38:27.211Z,56.30
2022-12-31T14:41:11.555Z,55.91
2022-12-31T14:43:52.475Z,56.17
2022-12-31T14:46:31.819Z,55.77
2022-12-31T14:49:17.623Z,55.91
2022-12-31T14:51:59.036Z,56.00
2022-12-31T14:54:38.070Z,55.99
2022-12-31T14:57:23.966Z,56.11
2022-12-31T14:59:56.855Z,55.92
2022-12-31T15:02:30.359Z,56.25
2022-12-31T15:05:17.528Z,56.04
2022-12-31T15:08:02.189Z,56.34
2022-12-31T15:10:46.810Z,56.44
2022-12-31T15:13:30.778Z,56.29
2022-12-31T15:16:14.110Z,56.18
2022-12-31T15:19:06.188Z,56.63
2022-12-31T15:21:57.864Z,56.22
2022-12-31T15:24:30.926Z,56.64
2022-12-31T15:27:05.851Z,56.57
2022-12-31T15:29:39.557Z,56.51
2022-12-31T15:32:19.264Z,56.89
2022-12-31T15:34:49.560Z,56.97
2022-12-31T15:37:34.255Z,57.25
2022-12-31T15:40:19.511Z,56.99
2022-12-31T15:42:56.876Z,57.08
2022-12-31T15:45:34.343Z,56.81
2022-12-31T15:48:09.358Z,56.68
2022-12-31T15:50:42.108Z,56.53
2022-12-31T15:53:19.250Z,57.08
2022-12-31T15:55:54.904Z,56.81
2022-12-31T15:58:32.640Z,56.43
2022-12-31T16:01:11.763Z,56.27
2022-12-31T16:03:47.589Z,56.01
2022-12-31T16:06:19.459Z,56.53
2022-12-31T16:08:52.382Z,55.89
2022-12-31T16:11:22.368Z,56.09
2022-12-31T16:13:58.033Z,56.10
2022-12-31T16:16:31.622Z,56.18
2022-12-31T16:19:03.657Z,56.51
2022-12-31T16:21:35.844Z,56.65
2022-12-31T16:24:08.721Z,56.43
2022-12-31T16:26:46.792Z,56.80
2022-12-31T16:29:21.683Z,56.59
2022-12-31T16:31:53.789Z,56.38
2022-12-31T16:34:25.476Z,57.02
2022-12-31T16:37:00.571Z,56.69
2022-12-31T16:39:33.049Z,56.35
2022-12-31T16:42:20.591Z,56.43
2022-12-31T16:44:55.528Z,56.88
2022-12-31T16:47:36.788Z,56.94
2022-12-31T16:50:18.846Z,56.99
2022-12-31T16:52:51.968Z,56.71
2022-12-31T16:55:26.409Z,56.93
2022-12-31T16:57:59.673Z,56.82
2022-12-31T17:00:32.455Z,56.91
2022-12-31T17:03:09.648Z,56.79
2022-12-31T17:05:58.891Z,56.40
2022-12-31T17:08:31.513Z,56.38
2022-12-31T17:11:01.541Z,56.15
2022-12-31T17:13:34.274Z,55.44
2022-12-31T17:16:07.407Z,56.09
2022-12-31T17:18:40.976Z,55.52
2022-12-31T17:21:13.239Z,56.09
2022-12-31T17:23:44.708Z,55.21
2022-12-31T17:26:17.163Z,55.46
2022-12-31T17:28:50.336Z,55.33
2022-12-31T17:31:35.124Z,55.27
2022-12-31T17:34:25.268Z,55.05
2022-12-31T17:37:04.069Z,54.94
2022-12-31T17:39:45.709Z,55.08
2022-12-31T17:42:27.318Z,54.95
2022-12-31T17:45:00.179Z,55.31
2022-12-31T17:47:40.222Z,54.38
2022-12-31T17:50:23.261Z,54.31
2022-12-31T17:52:53.227Z,54.40
2022-12-31T17:55:23.327Z,54.38
2022-12-31T17:57:55.938Z,54.54
2022-12-31T18:00:28.018Z,54.38
2022-12-31T18:03:01.285Z,54.13
2022-12-31T18:05:31.345Z,54.59
2022-12-31T18:08:01.346Z,54.48
2022-12-31T18:10:35.157Z,54.41
2022-12-31T18:13:07.830Z,53.96
2022-12-31T18:15:37.822Z,54.01
2022-12-31T18:18:24.816Z,53.71
2022-12-31T18:20:58.458Z,53.69
2022-12-31T18:23:32.003Z,53.69
2022-12-31T18:26:04.832Z,53.59
2022-12-31T18:28:34.853Z,53.86
2022-12-31T18:31:04.930Z,53.61
2022-12-31T18:33:37.840Z,53.50
2022-12-31T18:36:13.031Z,53.72
2022-12-31T18:38:43.822Z,53.63
2022-12-31T18:41:19.618Z,53.49
2022-12-31T18:43:50.080Z,53.37
2022-12-31T18:46:22.668Z,53.58
2022-12-31T18:48:55.282Z,53.70
2022-12-31T18:51:32.346Z,53.63
2022-12-31T18:54:02.777Z,53.45
2022-12-31T18:56:32.764Z,53.28
2022-12-31T18:59:02.719Z,53.13
2022-12-31T19:01:34.832Z,53.15
2022-12-31T19:04:19.901Z,53.42
2022-12-31T19:06:51.847Z,53.43
2022-12-31T19:12:14.344Z,54.70
2022-12-31T19:14:45.543Z,54.53
2022-12-31T19:17:15.522Z,54.66
2022-12-31T19:19:48.058Z,54.95
2022-12-31T19:22:18.659Z,54.52
2022-12-31T19:24:48.629Z,54.85
2022-12-31T19:27:18.651Z,54.79
2022-12-31T19:29:48.594Z,54.79
2022-12-31T19:32:18.685Z,55.03
2022-12-31T19:34:51.336Z,55.23
2022-12-31T19:37:21.385Z,55.28
2022-12-31T19:39:51.407Z,55.05
2022-12-31T19:42:21.669Z,54.79
2022-12-31T19:44:51.633Z,55.32
2022-12-31T19:47:21.584Z,55.49
2022-12-31T19:49:54.273Z,55.51
2022-12-31T19:52:24.233Z,55.47
2022-12-31T19:54:54.172Z,55.22
2022-12-31T19:57:24.166Z,55.03
2022-12-31T19:59:54.110Z,55.36
2022-12-31T20:02:24.426Z,55.33
2022-12-31T20:05:11.143Z,54.85
2022-12-31T20:07:41.682Z,55.43
2022-12-31T20:10:12.155Z,55.73
2022-12-31T20:12:44.547Z,54.76
2022-12-31T20:15:14.843Z,54.40
2022-12-31T20:17:45.319Z,54.64
2022-12-31T20:20:17.982Z,54.26
2022-12-31T20:22:47.957Z,54.54
2022-12-31T20:25:18.361Z,54.17
2022-12-31T20:27:48.375Z,54.47
2022-12-31T20:30:19.977Z,54.75
2022-12-31T20:32:49.991Z,54.53
2022-12-31T20:35:22.777Z,54.22
2022-12-31T20:37:52.890Z,53.94
2022-12-31T20:40:23.009Z,53.94
2022-12-31T20:42:55.673Z,54.13
2022-12-31T20:45:25.712Z,54.30
2022-12-31T20:47:55.740Z,53.91
2022-12-31T20:50:28.479Z,53.93
2022-12-31T20:52:58.459Z,54.20
2022-12-31T20:55:46.348Z,53.83
2022-12-31T20:58:16.455Z,53.42
2022-12-31T21:00:50.886Z,53.49
2022-12-31T21:04:02.243Z,52.94
2022-12-31T21:06:14.886Z,52.87
2022-12-31T21:08:45.534Z,52.76
2022-12-31T21:11:28.137Z,52.43
2022-12-31T21:13:58.790Z,52.33
2022-12-31T21:16:29.649Z,52.48
2022-12-31T21:18:59.600Z,52.65
2022-12-31T21:21:32.214Z,52.25
2022-12-31T21:24:02.170Z,52.12
2022-12-31T21:26:35.292Z,51.75
2022-12-31T21:29:05.303Z,51.86
2022-12-31T21:31:35.337Z,51.52
2022-12-31T21:34:05.339Z,51.50
2022-12-31T21:36:37.992Z,51.77
2022-12-31T21:39:07.964Z,51.42
2022-12-31T21:41:50.403Z,51.13
2022-12-31T21:44:21.090Z,51.08
2022-12-31T21:47:33.237Z,51.19
2022-12-31T21:49:42.685Z,50.98
2022-12-31T21:52:34.040Z,50.39
2022-12-31T21:55:18.395Z,50.42
2022-12-31T22:00:53.349Z,50.34
2022-12-31T22:03:31.861Z,49.99
2022-12-31T22:06:05.859Z,50.03
2022-12-31T22:08:39.105Z,50.13
2022-12-31T22:11:09.352Z,50.08
2022-12-31T22:13:40.283Z,49.95
2022-12-31T22:16:11.373Z,50.21
2022-12-31T22:18:42.991Z,49.85
2022-12-31T22:21:19.022Z,49.58
2022-12-31T22:23:54.424Z,49.89
2022-12-31T22:26:26.541Z,49.86
2022-12-31T22:28:59.952Z,49.61
2022-12-31T22:31:32.080Z,49.88
2022-12-31T22:34:02.451Z,49.96
2022-12-31T22:36:32.966Z,50.03
2022-12-31T22:39:05.705Z,50.58
2022-12-31T22:41:37.199Z,50.08
2022-12-31T22:44:07.571Z,50.39
2022-12-31T22:46:39.852Z,50.19
2022-12-31T22:49:09.941Z,50.41
2022-12-31T22:51:55.848Z,50.16
2022-12-31T22:54:44.151Z,49.78
2022-12-31T22:57:19.832Z,49.72
2022-12-31T22:59:51.375Z,49.83
2022-12-31T23:02:39.873Z,49.70
2022-12-31T23:05:16.470Z,49.33
2022-12-31T23:07:46.867Z,49.44
2022-12-31T23:10:32.108Z,49.86
2022-12-31T23:13:14.437Z,49.88
2022-12-31T23:15:59.909Z,49.72
2022-12-31T23:18:42.304Z,49.89
2022-12-31T23:21:25.543Z,49.64
2022-12-31T23:23:56.449Z,49.60
2022-12-31T23:26:29.172Z,49.49
2022-12-31T23:29:02.159Z,49.55
2022-12-31T23:31:32.514Z,49.31
2022-12-31T23:34:02.824Z,49.10
2022-12-31T23:36:40.823Z,48.94
2022-12-31T23:39:11.082Z,48.81
2022-12-31T23:41:44.130Z,48.22
2022-12-31T23:44:14.882Z,48.43
2022-12-31T23:46:45.148Z,48.28
2022-12-31T23:49:15.210Z,48.01
2022-12-31T23:51:45.495Z,48.24
2022-12-31T23:54:15.961Z,48.08
2022-12-31T23:56:48.625Z,48.06
2022-12-31T23:59:18.839Z,47.96
